Time;durP1;ratioP1;P1;durP2;ratioP2;P2;SDS_P1;SDS_P2;PMS_P1;PMS_P2;Temp;Humidity;BMP_temperature;BMP_pressure;BME280_temperature;BME280_humidity;BME280_pressure;Samples;Min_cycle;Max_cycle;Signal;HPM_P1;HPM_P2
2023/08/18 00:01:36;;;;;;;2.23;2.03;;;24.00;79.80;23.50;96675.00;;;;5012194;28;20240;-84
2023/08/18 00:04:04;;;;;;;2.50;2.40;;;24.00;79.80;23.50;96664.00;;;;5010746;28;20197;-84
2023/08/18 00:06:31;;;;;;;2.10;1.90;;;23.90;79.70;23.50;96654.00;;;;5011629;28;20227;-84
2023/08/18 00:08:58;;;;;;;3.90;2.23;;;24.00;79.70;23.50;96655.00;;;;5013333;28;20235;-84
2023/08/18 00:11:27;;;;;;;2.50;2.30;;;24.00;79.50;23.50;96655.00;;;;5013442;28;20588;-84
2023/08/18 00:13:54;;;;;;;3.50;2.67;;;24.00;79.30;23.50;96655.00;;;;5013903;28;20201;-84
2023/08/18 00:16:21;;;;;;;5.27;2.70;;;23.90;79.20;23.40;96650.00;;;;5013790;28;20191;-84
2023/08/18 00:18:49;;;;;;;2.20;2.07;;;23.90;79.20;23.40;96653.00;;;;5012231;28;20205;-84
2023/08/18 00:21:16;;;;;;;2.33;2.10;;;23.90;78.90;23.40;96646.00;;;;5012804;28;20220;-84
2023/08/18 00:23:44;;;;;;;3.00;2.70;;;23.90;78.80;23.40;96649.00;;;;5013557;28;20281;-84
2023/08/18 00:26:11;;;;;;;2.10;2.00;;;23.90;79.60;23.30;96651.00;;;;5012637;28;20197;-84
2023/08/18 00:28:40;;;;;;;2.53;2.33;;;23.90;78.90;23.30;96656.00;;;;5011501;28;20225;-85
2023/08/18 00:31:07;;;;;;;2.20;2.10;;;23.80;79.10;23.30;96655.00;;;;5013241;28;20208;-84
2023/08/18 00:33:33;;;;;;;2.90;2.27;;;23.80;79.10;23.20;96645.00;;;;5012344;28;20192;-85
2023/08/18 00:36:00;;;;;;;2.80;2.33;;;23.80;79.30;23.20;96655.00;;;;5013285;28;20618;-84
2023/08/18 00:38:28;;;;;;;2.80;2.60;;;23.70;79.30;23.20;96650.00;;;;5013339;28;20586;-84
2023/08/18 00:40:55;;;;;;;2.47;2.27;;;23.70;79.40;23.10;96642.00;;;;5014560;28;20633;-85
2023/08/18 00:43:23;;;;;;;2.80;2.60;;;23.70;79.40;23.10;96638.00;;;;5011990;28;20200;-84
2023/08/18 00:45:54;;;;;;;2.60;2.37;;;23.70;79.20;23.10;96632.00;;;;4999092;28;20209;-84
2023/08/18 00:48:22;;;;;;;2.67;2.47;;;23.70;78.80;23.10;96633.00;;;;5014586;28;20193;-84
2023/08/18 00:50:51;;;;;;;2.23;2.13;;;23.60;78.80;23.00;96628.00;;;;5014654;28;20207;-84
2023/08/18 00:53:19;;;;;;;2.80;2.60;;;23.60;78.90;23.00;96628.00;;;;5015001;28;20305;-84
2023/08/18 00:55:48;;;;;;;2.50;2.30;;;23.60;79.00;23.00;96618.00;;;;5013875;28;20198;-84
2023/08/18 00:58:16;;;;;;;2.53;2.43;;;23.50;79.00;23.00;96613.00;;;;5014822;28;20224;-84
2023/08/18 01:00:44;;;;;;;3.03;2.40;;;23.50;79.00;22.90;96611.00;;;;5014760;28;20213;-84
2023/08/18 01:03:13;;;;;;;3.50;2.70;;;23.50;79.10;22.90;96611.00;;;;5015327;28;20698;-84
2023/08/18 01:05:40;;;;;;;2.93;2.73;;;23.50;79.00;22.90;96598.00;;;;5016331;28;20284;-84
2023/08/18 01:08:07;;;;;;;3.20;2.63;;;23.50;79.10;22.90;96594.00;;;;5016299;28;20281;-84
2023/08/18 01:10:47;;;;;;;2.80;2.50;;;23.40;78.90;22.80;96590.00;;;;5015144;28;20242;-84
2023/08/18 01:13:26;;;;;;;2.53;2.33;;;23.40;78.60;22.80;96582.00;;;;5009239;28;20220;-84
2023/08/18 01:15:57;;;;;;;2.50;2.30;;;23.40;78.50;22.80;96581.00;;;;5016831;28;20205;-84
2023/08/18 01:18:29;;;;;;;2.47;2.33;;;23.40;78.70;22.70;96578.00;;;;4999347;28;20629;-85
2023/08/18 01:21:00;;;;;;;3.47;2.60;;;23.30;78.70;22.70;96586.00;;;;5015106;28;20560;-85
2023/08/18 01:23:38;;;;;;;2.87;2.30;;;23.30;78.80;22.70;96576.00;;;;5016365;28;20308;-84
2023/08/18 01:26:06;;;;;;;2.77;2.50;;;23.30;79.40;22.60;96579.00;;;;5015829;28;20212;-84
2023/08/18 01:28:34;;;;;;;2.60;2.40;;;23.30;79.00;22.60;96576.00;;;;5016391;28;20197;-84
2023/08/18 01:31:10;;;;;;;2.80;2.57;;;23.20;79.10;22.60;96568.00;;;;5016048;28;20431;-84
2023/08/18 01:33:45;;;;;;;3.37;2.60;;;23.20;78.90;22.60;96569.00;;;;5014997;28;20296;-84
2023/08/18 01:36:18;;;;;;;2.57;2.37;;;23.20;78.70;22.50;96561.00;;;;5006936;28;20202;-85
2023/08/18 01:38:52;;;;;;;2.50;2.30;;;23.10;78.70;22.50;96560.00;;;;5015671;28;20202;-84
2023/08/18 01:41:26;;;;;;;2.30;2.10;;;23.10;78.80;22.50;96560.00;;;;5014004;28;20216;-84
2023/08/18 01:43:54;;;;;;;2.13;2.03;;;23.10;78.90;22.50;96560.00;;;;5014366;28;20199;-84
2023/08/18 01:46:21;;;;;;;2.80;2.60;;;23.10;79.10;22.40;96560.00;;;;5013654;28;20202;-84
2023/08/18 01:48:48;;;;;;;3.20;1.93;;;23.00;79.00;22.40;96560.00;;;;4995526;28;20544;-84
2023/08/18 01:51:16;;;;;;;2.73;2.30;;;23.00;79.00;22.40;96560.00;;;;5010545;28;20567;-84
2023/08/18 01:53:43;;;;;;;2.23;2.13;;;23.00;78.90;22.40;96559.00;;;;5012972;28;20194;-84
2023/08/18 01:56:11;;;;;;;2.87;2.40;;;23.00;78.90;22.30;96557.00;;;;5013070;28;20197;-84
2023/08/18 01:58:38;;;;;;;2.30;2.17;;;22.90;78.80;22.30;96559.00;;;;5013905;28;20736;-84
2023/08/18 02:01:06;;;;;;;2.77;2.13;;;22.90;78.80;22.30;96559.00;;;;5015139;28;20281;-84
2023/08/18 02:03:34;;;;;;;2.23;2.13;;;22.90;78.80;22.30;96558.00;;;;5015055;28;20195;-85
2023/08/18 02:06:01;;;;;;;2.37;2.27;;;22.90;78.70;22.20;96563.00;;;;5014940;28;20686;-84
2023/08/18 02:08:29;;;;;;;2.50;2.30;;;22.80;78.50;22.20;96559.00;;;;5015254;28;20245;-84
2023/08/18 02:11:02;;;;;;;2.63;2.50;;;22.80;78.50;22.10;96560.00;;;;5014672;28;20220;-85
2023/08/18 02:13:32;;;;;;;3.10;2.20;;;22.80;78.70;22.10;96556.00;;;;5013563;28;20199;-84
2023/08/18 02:15:59;;;;;;;2.30;2.10;;;22.70;78.80;22.10;96556.00;;;;5013134;28;20206;-85
2023/08/18 02:18:26;;;;;;;2.33;2.13;;;22.70;79.00;22.10;96544.00;;;;5014425;28;20209;-85
2023/08/18 02:20:57;;;;;;;3.73;2.60;;;22.70;79.30;22.00;96547.00;;;;5014594;28;20198;-84
2023/08/18 02:23:24;;;;;;;2.67;2.37;;;22.70;79.40;22.00;96542.00;;;;5014026;28;20198;-84
2023/08/18 02:25:52;;;;;;;3.50;2.33;;;22.60;79.60;22.00;96536.00;;;;5013480;28;20226;-85
2023/08/18 02:28:19;;;;;;;3.27;2.97;;;22.60;79.70;22.00;96533.00;;;;5013438;28;20199;-84
2023/08/18 02:30:47;;;;;;;2.63;2.33;;;22.60;79.40;22.00;96533.00;;;;5014369;28;20227;-85
2023/08/18 02:33:15;;;;;;;2.43;2.33;;;22.60;79.30;22.00;96543.00;;;;5013792;28;20232;-84
2023/08/18 02:35:45;;;;;;;3.20;2.90;;;22.60;79.40;21.90;96553.00;;;;5012205;28;20709;-84
2023/08/18 02:38:15;;;;;;;2.20;2.10;;;22.60;79.40;21.90;96548.00;;;;5005715;28;20567;-84
2023/08/18 02:40:42;;;;;;;4.30;2.50;;;22.50;79.40;21.90;96545.00;;;;5012718;28;20206;-84
2023/08/18 02:43:10;;;;;;;2.60;2.40;;;22.50;79.60;21.90;96550.00;;;;5002990;28;20246;-84
2023/08/18 02:45:37;;;;;;;2.23;2.13;;;22.50;79.70;21.90;96554.00;;;;5012171;28;20285;-84
2023/08/18 02:48:07;;;;;;;4.07;2.40;;;22.50;79.70;21.90;96555.00;;;;5011892;28;20198;-84
2023/08/18 02:50:34;;;;;;;2.47;2.37;;;22.50;79.40;21.90;96548.00;;;;5010238;28;20232;-84
2023/08/18 02:53:03;;;;;;;3.20;2.30;;;22.50;79.50;21.80;96545.00;;;;5010362;28;20224;-84
2023/08/18 02:55:30;;;;;;;2.40;2.20;;;22.50;80.00;21.80;96547.00;;;;5012543;28;20236;-84
2023/08/18 02:57:58;;;;;;;2.60;2.33;;;22.40;79.20;21.80;96552.00;;;;5012207;28;20202;-84
2023/08/18 03:00:26;;;;;;;2.80;2.60;;;22.40;79.30;21.80;96554.00;;;;4995961;28;20194;-85
2023/08/18 03:02:54;;;;;;;2.57;2.37;;;22.40;79.30;21.70;96552.00;;;;5011584;28;20219;-84
2023/08/18 03:05:22;;;;;;;2.70;2.50;;;22.40;79.10;21.70;96548.00;;;;5013123;28;20198;-85
2023/08/18 03:07:49;;;;;;;3.07;2.50;;;22.40;79.00;21.70;96549.00;;;;5012911;28;20211;-84
2023/08/18 03:10:17;;;;;;;2.77;2.43;;;22.30;79.10;21.70;96556.00;;;;5013077;28;20308;-84
2023/08/18 03:12:44;;;;;;;2.90;2.70;;;22.30;79.20;21.70;96560.00;;;;5013398;28;20233;-84
2023/08/18 03:15:12;;;;;;;2.60;2.40;;;22.30;79.30;21.60;96560.00;;;;5005396;28;20194;-84
2023/08/18 03:17:39;;;;;;;2.50;2.30;;;22.30;79.60;21.70;96559.00;;;;5011759;28;20204;-84
2023/08/18 03:20:08;;;;;;;2.67;2.43;;;22.30;79.80;21.60;96561.00;;;;5013205;28;20565;-85
2023/08/18 03:22:37;;;;;;;3.00;2.80;;;22.30;80.00;21.70;96555.00;;;;5013229;28;20573;-84
2023/08/18 03:25:05;;;;;;;3.03;2.80;;;22.30;80.10;21.70;96560.00;;;;5013543;28;20197;-85
2023/08/18 03:27:32;;;;;;;3.80;2.93;;;22.30;80.20;21.70;96565.00;;;;5013868;28;20575;-85
2023/08/18 03:30:00;;;;;;;2.67;2.50;;;22.30;80.20;21.70;96560.00;;;;5011780;28;20706;-84
2023/08/18 03:32:28;;;;;;;3.50;2.63;;;22.30;80.40;21.70;96571.00;;;;5011257;28;20310;-84
2023/08/18 03:34:55;;;;;;;2.73;2.53;;;22.30;80.60;21.70;96570.00;;;;5012616;28;20294;-84
2023/08/18 03:37:22;;;;;;;2.87;2.67;;;22.30;80.70;21.70;96574.00;;;;5010054;28;20190;-85
2023/08/18 03:39:53;;;;;;;2.57;2.37;;;22.30;80.70;21.80;96571.00;;;;5011425;28;20198;-84
2023/08/18 03:42:20;;;;;;;5.43;2.83;;;22.40;80.80;21.80;96577.00;;;;5010095;28;20699;-84
2023/08/18 03:44:48;;;;;;;3.30;3.00;;;22.40;80.90;21.80;96576.00;;;;5009842;28;20417;-84
2023/08/18 03:47:15;;;;;;;3.23;3.03;;;22.40;80.90;21.80;96580.00;;;;5011643;28;20186;-84
2023/08/18 03:49:42;;;;;;;4.33;2.90;;;22.40;80.90;21.80;96581.00;;;;5009296;28;20218;-84
2023/08/18 03:52:09;;;;;;;2.90;2.70;;;22.40;80.90;21.80;96579.00;;;;5011253;28;20214;-84
2023/08/18 03:54:37;;;;;;;2.90;2.70;;;22.50;81.30;21.90;96598.00;;;;5013097;28;20682;-84
2023/08/18 03:57:06;;;;;;;3.23;2.93;;;22.50;81.00;21.90;96594.00;;;;5012860;28;20289;-84
2023/08/18 03:59:33;;;;;;;3.10;2.90;;;22.50;81.10;21.90;96599.00;;;;5012175;28;20194;-84
2023/08/18 04:02:00;;;;;;;3.20;3.00;;;22.50;81.10;21.90;96598.00;;;;5011308;28;20229;-85
2023/08/18 04:04:27;;;;;;;3.20;3.00;;;22.50;81.20;21.90;96594.00;;;;5012810;28;20201;-84
2023/08/18 04:06:54;;;;;;;4.97;3.17;;;22.50;81.20;21.90;96595.00;;;;5012559;28;20208;-84
2023/08/18 04:09:22;;;;;;;3.27;2.97;;;22.50;81.10;21.90;96607.00;;;;5012666;28;20290;-85
2023/08/18 04:11:49;;;;;;;4.63;3.60;;;22.50;81.10;22.00;96606.00;;;;5012602;28;20301;-84
2023/08/18 04:14:18;;;;;;;5.67;3.23;;;22.60;81.20;22.00;96605.00;;;;5011121;28;20223;-84
2023/08/18 04:16:46;;;;;;;3.70;3.20;;;22.60;81.40;22.00;96611.00;;;;5016338;28;20196;-85
2023/08/18 04:19:14;;;;;;;3.60;3.30;;;22.60;81.50;22.00;96609.00;;;;5008578;28;20228;-84
2023/08/18 04:21:41;;;;;;;4.17;3.27;;;22.60;81.60;22.00;96603.00;;;;5016791;28;20221;-84
2023/08/18 04:24:08;;;;;;;5.30;3.27;;;22.60;81.70;22.00;96606.00;;;;5015958;28;20671;-84
2023/08/18 04:26:37;;;;;;;3.70;3.50;;;22.60;81.70;22.10;96608.00;;;;5016259;28;20212;-84
2023/08/18 04:29:05;;;;;;;4.50;4.10;;;22.60;81.80;22.10;96607.00;;;;5015216;28;20210;-84
2023/08/18 04:31:33;;;;;;;4.67;3.97;;;22.60;82.00;22.10;96601.00;;;;5015006;28;20708;-84
2023/08/18 04:34:01;;;;;;;4.40;4.00;;;22.70;82.10;22.10;96616.00;;;;5014279;28;20236;-84
2023/08/18 04:36:28;;;;;;;5.63;4.60;;;22.70;82.30;22.20;96608.00;;;;5012887;28;20222;-84
2023/08/18 04:38:56;;;;;;;4.60;4.30;;;22.70;82.20;22.20;96610.00;;;;5014263;28;20294;-84
2023/08/18 04:41:23;;;;;;;4.53;4.13;;;22.70;82.20;22.20;96619.00;;;;4996018;28;20250;-84
2023/08/18 04:43:52;;;;;;;5.03;4.63;;;22.70;82.20;22.20;96606.00;;;;5011029;28;20711;-84
2023/08/18 04:46:19;;;;;;;4.83;4.33;;;22.70;82.20;22.30;96608.00;;;;5012942;28;20198;-84
2023/08/18 04:48:48;;;;;;;4.43;4.03;;;22.80;82.90;22.30;96608.00;;;;5015884;28;20198;-84
2023/08/18 04:51:15;;;;;;;4.67;4.27;;;22.80;82.20;22.30;96606.00;;;;5016240;28;20223;-84
2023/08/18 04:53:42;;;;;;;4.57;4.17;;;22.80;82.20;22.30;96611.00;;;;5015870;28;20677;-84
2023/08/18 04:56:09;;;;;;;4.40;4.10;;;22.80;82.30;22.40;96611.00;;;;5015428;28;20198;-84
2023/08/18 04:58:37;;;;;;;4.33;4.03;;;22.80;83.10;22.40;96613.00;;;;5015853;28;20200;-84
2023/08/18 05:01:04;;;;;;;4.30;4.00;;;22.90;82.50;22.40;96616.00;;;;5015750;28;20199;-84
2023/08/18 05:03:33;;;;;;;4.50;4.20;;;22.90;82.60;22.40;96623.00;;;;5014500;28;20196;-84
2023/08/18 05:06:08;;;;;;;4.17;3.87;;;22.90;82.70;22.50;96622.00;;;;5015805;28;20202;-84
2023/08/18 05:08:37;;;;;;;4.77;4.37;;;23.00;82.70;22.50;96626.00;;;;5015482;28;20576;-84
2023/08/18 05:11:06;;;;;;;4.80;4.40;;;23.00;82.70;22.50;96624.00;;;;5015407;28;20223;-84
2023/08/18 05:13:33;;;;;;;5.23;4.03;;;23.00;82.70;22.60;96630.00;;;;5014264;28;20757;-84
2023/08/18 05:16:02;;;;;;;4.53;4.13;;;23.00;82.70;22.60;96622.00;;;;5015230;28;20719;-84
2023/08/18 05:18:31;;;;;;;4.37;3.97;;;23.10;82.80;22.60;96635.00;;;;5013544;28;20226;-84
2023/08/18 05:21:01;;;;;;;4.67;4.27;;;23.10;82.80;22.60;96621.00;;;;5015350;28;20206;-84
2023/08/18 05:23:30;;;;;;;5.17;4.77;;;23.10;82.80;22.70;96631.00;;;;5014174;28;20202;-84
2023/08/18 05:25:58;;;;;;;5.13;4.80;;;23.10;82.90;22.70;96627.00;;;;5013098;28;20657;-84
2023/08/18 05:28:29;;;;;;;4.90;4.50;;;23.20;82.80;22.70;96627.00;;;;5013533;28;20205;-84
2023/08/18 05:30:56;;;;;;;5.00;4.60;;;23.20;82.80;22.80;96630.00;;;;5012363;28;20835;-84
2023/08/18 05:33:23;;;;;;;4.83;4.50;;;23.20;82.60;22.80;96630.00;;;;5037930;23;20445;-78
2023/08/18 05:35:51;;;;;;;5.20;4.80;;;23.30;82.70;22.80;96627.00;;;;5044715;28;20193;-78
2023/08/18 05:38:20;;;;;;;5.27;4.70;;;23.30;82.80;22.80;96621.00;;;;5047581;28;20195;-78
2023/08/18 05:40:49;;;;;;;5.00;4.60;;;23.30;82.80;22.90;96621.00;;;;5047814;28;20206;-78
2023/08/18 05:43:19;;;;;;;8.33;4.53;;;23.30;82.90;22.90;96625.00;;;;5031141;28;20226;-79
2023/08/18 05:45:48;;;;;;;4.93;4.53;;;23.40;83.00;22.90;96621.00;;;;5042127;28;20572;-79
2023/08/18 05:48:16;;;;;;;4.50;4.07;;;23.40;83.10;22.90;96621.00;;;;5038028;28;20204;-78
2023/08/18 05:50:43;;;;;;;5.00;4.50;;;23.40;83.10;23.00;96629.00;;;;5028491;28;20224;-78
2023/08/18 05:53:10;;;;;;;4.47;4.17;;;23.40;83.10;23.00;96634.00;;;;5036894;28;20302;-79
2023/08/18 05:55:39;;;;;;;4.70;4.40;;;23.50;83.20;23.00;96626.00;;;;5044420;28;20207;-78
2023/08/18 05:58:09;;;;;;;4.97;4.57;;;23.50;83.10;23.10;96623.00;;;;5040115;28;20197;-78
2023/08/18 06:00:36;;;;;;;5.00;4.50;;;23.50;83.00;23.10;96624.00;;;;5019928;28;20208;-78
2023/08/18 06:03:04;;;;;;;5.63;4.73;;;23.50;82.90;23.10;96623.00;;;;5008014;28;20267;-78
2023/08/18 06:05:31;;;;;;;4.63;4.33;;;23.50;82.80;23.10;96624.00;;;;5040783;28;20279;-78
2023/08/18 06:08:00;;;;;;;4.53;4.23;;;23.60;82.80;23.10;96624.00;;;;5040409;28;20649;-78
2023/08/18 06:10:27;;;;;;;4.40;3.97;;;23.60;82.70;23.20;96631.00;;;;5028365;28;20223;-78
2023/08/18 06:12:56;;;;;;;4.93;4.60;;;23.60;82.60;23.20;96640.00;;;;5040868;28;20300;-77
2023/08/18 06:15:25;;;;;;;4.83;4.43;;;23.60;82.60;23.20;96636.00;;;;5031685;28;20204;-78
2023/08/18 06:17:52;;;;;;;5.07;4.67;;;23.70;82.70;23.20;96638.00;;;;5039853;28;20210;-78
2023/08/18 06:20:19;;;;;;;4.77;4.47;;;23.70;82.70;23.20;96628.00;;;;5011717;28;20289;-78
2023/08/18 06:22:46;;;;;;;4.50;4.10;;;23.70;82.60;23.20;96632.00;;;;5037463;28;20727;-78
2023/08/18 06:25:14;;;;;;;5.13;4.53;;;23.70;82.60;23.30;96636.00;;;;5015294;28;20198;-79
2023/08/18 06:27:41;;;;;;;5.17;4.77;;;23.70;82.50;23.30;96645.00;;;;5032496;28;20395;-77
2023/08/18 06:30:12;;;;;;;4.40;4.00;;;23.80;82.60;23.30;96640.00;;;;5039645;28;20200;-77
2023/08/18 06:32:39;;;;;;;4.50;4.10;;;23.80;83.30;23.30;96633.00;;;;5032703;28;20272;-77
2023/08/18 06:35:07;;;;;;;6.47;4.50;;;23.80;82.70;23.30;96636.00;;;;5039345;28;20208;-79
2023/08/18 06:37:34;;;;;;;4.73;4.43;;;23.80;82.70;23.40;96641.00;;;;5042654;28;20202;-80
2023/08/18 06:40:02;;;;;;;6.43;5.83;;;23.80;82.80;23.40;96639.00;;;;5045711;28;20272;-80
2023/08/18 06:42:29;;;;;;;4.30;4.00;;;23.90;82.70;23.40;96640.00;;;;5045279;28;20240;-80
2023/08/18 06:44:56;;;;;;;4.97;4.27;;;23.90;82.80;23.40;96644.00;;;;5052760;28;20221;-80
2023/08/18 06:47:25;;;;;;;4.93;3.70;;;23.90;82.80;23.50;96644.00;;;;5050027;28;20290;-80
2023/08/18 06:49:52;;;;;;;3.40;3.20;;;23.90;82.70;23.50;96645.00;;;;5051766;28;20283;-80
2023/08/18 06:52:19;;;;;;;3.90;3.60;;;24.00;82.80;23.50;96638.00;;;;5022256;28;20229;-79
2023/08/18 06:54:48;;;;;;;4.10;3.80;;;24.00;82.80;23.60;96643.00;;;;5006117;28;20659;-80
2023/08/18 06:57:15;;;;;;;4.20;3.90;;;24.00;82.70;23.60;96645.00;;;;5029456;28;20194;-79
2023/08/18 06:59:42;;;;;;;4.40;4.00;;;24.10;82.80;23.70;96644.00;;;;5037364;28;20284;-80
2023/08/18 07:02:10;;;;;;;4.27;3.87;;;24.10;82.60;23.70;96641.00;;;;5043393;28;20217;-80
2023/08/18 07:04:38;;;;;;;3.90;3.60;;;24.10;82.40;23.70;96638.00;;;;5037425;28;20438;-80
2023/08/18 07:07:05;;;;;;;4.07;3.67;;;24.20;82.20;23.80;96641.00;;;;5033300;28;20205;-80
2023/08/18 07:09:33;;;;;;;4.43;3.90;;;24.20;82.30;23.80;96645.00;;;;5015380;28;20289;-80
2023/08/18 07:12:00;;;;;;;4.00;3.70;;;24.30;82.40;23.90;96646.00;;;;5030494;28;20612;-80
2023/08/18 07:14:28;;;;;;;3.80;3.50;;;24.30;82.50;23.90;96649.00;;;;5032342;28;20212;-80
2023/08/18 07:16:55;;;;;;;3.90;3.50;;;24.30;82.30;24.00;96642.00;;;;5040655;28;20280;-80
2023/08/18 07:19:22;;;;;;;3.93;3.53;;;24.40;82.30;24.00;96643.00;;;;5037380;28;20293;-80
2023/08/18 07:21:52;;;;;;;3.43;3.23;;;24.40;82.20;24.10;96639.00;;;;5029337;28;20232;-80
2023/08/18 07:24:19;;;;;;;3.60;3.30;;;24.50;82.10;24.20;96650.00;;;;5038566;28;20194;-79
2023/08/18 07:26:46;;;;;;;3.20;3.00;;;24.50;82.30;24.20;96646.00;;;;5030511;28;20202;-80
2023/08/18 07:29:13;;;;;;;3.23;3.03;;;24.60;82.00;24.30;96650.00;;;;5042587;28;20657;-78
2023/08/18 07:31:42;;;;;;;3.90;3.60;;;24.70;81.90;24.40;96650.00;;;;5017740;28;20268;-80
2023/08/18 07:34:09;;;;;;;3.70;3.40;;;24.70;81.90;24.40;96661.00;;;;5030401;28;20199;-79
2023/08/18 07:36:38;;;;;;;3.27;3.07;;;24.80;82.00;24.50;96656.00;;;;5034277;28;20190;-80
2023/08/18 07:39:10;;;;;;;3.70;3.40;;;24.90;81.90;24.60;96657.00;;;;5032687;28;20288;-80
2023/08/18 07:41:40;;;;;;;3.83;3.13;;;24.90;81.50;24.70;96661.00;;;;5034678;28;20248;-81
2023/08/18 07:44:08;;;;;;;3.67;3.37;;;25.00;81.60;24.70;96669.00;;;;5039439;28;20649;-80
2023/08/18 07:46:35;;;;;;;2.90;2.70;;;25.10;81.60;24.80;96667.00;;;;5032563;28;20193;-80
2023/08/18 07:49:03;;;;;;;2.67;2.47;;;25.20;81.70;24.90;96671.00;;;;5041768;28;20193;-81
2023/08/18 07:51:31;;;;;;;2.77;2.57;;;25.20;81.80;25.00;96668.00;;;;5046352;28;20303;-81
2023/08/18 07:53:58;;;;;;;2.53;2.33;;;25.30;81.60;25.10;96676.00;;;;5040512;28;20572;-82
2023/08/18 07:56:27;;;;;;;2.70;2.33;;;25.40;81.10;25.20;96679.00;;;;5029781;28;20289;-81
2023/08/18 07:58:54;;;;;;;2.43;2.33;;;25.50;79.80;25.30;96675.00;;;;5035055;28;20207;-81
2023/08/18 08:01:22;;;;;;;2.47;2.27;;;25.60;80.20;25.30;96671.00;;;;5030978;28;20204;-80
2023/08/18 08:03:49;;;;;;;2.10;1.77;;;25.60;79.90;25.40;96671.00;;;;5034423;28;20204;-80
2023/08/18 08:06:16;;;;;;;2.40;2.20;;;25.80;79.90;25.50;96674.00;;;;5028302;28;20208;-80
2023/08/18 08:08:44;;;;;;;2.50;2.40;;;25.80;78.90;25.60;96674.00;;;;5029524;28;20282;-80
2023/08/18 08:11:12;;;;;;;2.30;2.20;;;25.90;78.80;25.70;96681.00;;;;5029616;28;20311;-80
2023/08/18 08:13:41;;;;;;;2.43;2.23;;;26.00;79.00;25.80;96673.00;;;;5010636;28;20228;-81
2023/08/18 08:16:08;;;;;;;2.20;2.10;;;26.10;78.80;25.90;96673.00;;;;5042350;28;20205;-80
2023/08/18 08:18:36;;;;;;;2.37;2.17;;;26.20;79.00;26.00;96680.00;;;;5040240;28;20688;-80
2023/08/18 08:21:03;;;;;;;1.93;1.80;;;26.30;78.70;26.10;96675.00;;;;5028702;28;20201;-81
2023/08/18 08:23:30;;;;;;;3.07;1.70;;;26.30;78.70;26.10;96677.00;;;;5046449;28;20643;-81
2023/08/18 08:25:57;;;;;;;2.20;2.00;;;26.40;78.00;26.20;96672.00;;;;5043893;28;20193;-80
2023/08/18 08:28:25;;;;;;;1.93;1.83;;;26.50;78.10;26.30;96682.00;;;;5028815;28;20200;-80
2023/08/18 08:30:54;;;;;;;2.20;2.00;;;26.60;77.00;26.50;96675.00;;;;5046706;28;20283;-80
2023/08/18 08:33:22;;;;;;;3.07;2.27;;;26.70;76.00;26.60;96673.00;;;;5045122;28;20490;-80
2023/08/18 08:35:49;;;;;;;1.90;1.80;;;26.80;76.70;26.70;96679.00;;;;5040067;28;20205;-80
2023/08/18 08:38:17;;;;;;;2.20;2.10;;;26.90;76.60;26.80;96677.00;;;;5046759;28;20190;-80
2023/08/18 08:40:44;;;;;;;1.85;1.75;;;27.00;76.80;26.90;96666.00;;;;5041285;28;20313;-80
2023/08/18 08:43:11;;;;;;;1.93;1.80;;;27.10;75.80;27.00;96672.00;;;;5040429;28;20213;-79
2023/08/18 08:45:40;;;;;;;1.80;1.70;;;27.20;76.10;27.10;96678.00;;;;5049238;28;20252;-80
2023/08/18 08:48:12;;;;;;;1.83;1.73;;;27.30;76.10;27.20;96686.00;;;;5021030;28;20190;-80
2023/08/18 08:50:47;;;;;;;2.28;1.90;;;27.40;75.00;27.40;96690.00;;;;5043666;28;20197;-79
2023/08/18 08:53:22;;;;;;;2.20;1.85;;;27.60;75.60;27.50;96678.00;;;;5031952;28;20218;-80
2023/08/18 08:55:53;;;;;;;2.72;2.00;;;27.70;75.90;27.60;96684.00;;;;5039912;28;20196;-80
2023/08/18 08:58:20;;;;;;;2.55;1.50;;;27.80;75.70;27.70;96681.00;;;;5033288;28;20197;-79
2023/08/18 09:00:47;;;;;;;2.85;1.27;;;27.90;74.20;27.90;96678.00;;;;5017223;28;20579;-80
2023/08/18 09:03:16;;;;;;;1.60;1.50;;;28.10;74.50;28.00;96674.00;;;;5028855;28;20225;-80
2023/08/18 09:05:44;;;;;;;2.20;1.60;;;28.20;74.60;28.10;96681.00;;;;5026457;28;20193;-79
2023/08/18 09:08:11;;;;;;;1.30;1.30;;;28.30;75.00;28.30;96675.00;;;;5046960;28;20200;-79
2023/08/18 09:10:40;;;;;;;1.75;1.45;;;28.40;74.10;28.40;96682.00;;;;5026284;28;20206;-80
2023/08/18 09:13:08;;;;;;;1.40;1.30;;;28.60;74.00;28.60;96680.00;;;;5030255;28;20229;-80
2023/08/18 09:15:35;;;;;;;1.55;1.45;;;28.70;74.20;28.70;96680.00;;;;5031098;28;20198;-79
2023/08/18 09:18:05;;;;;;;1.27;1.17;;;28.90;73.90;28.90;96687.00;;;;5033913;28;20284;-79
2023/08/18 09:20:35;;;;;;;1.15;1.05;;;29.00;72.70;29.00;96681.00;;;;5027267;28;20202;-80
2023/08/18 09:23:03;;;;;;;1.17;1.08;;;29.10;71.10;29.20;96685.00;;;;5027960;28;20229;-79
2023/08/18 09:25:34;;;;;;;1.42;1.13;;;29.30;71.30;29.30;96677.00;;;;5031219;28;20277;-79
2023/08/18 09:28:03;;;;;;;2.28;1.13;;;29.40;69.30;29.40;96680.00;;;;5029332;28;20206;-79
2023/08/18 09:30:31;;;;;;;1.20;1.10;;;29.50;69.00;29.50;96684.00;;;;5031549;28;20193;-79
2023/08/18 09:33:01;;;;;;;3.72;1.63;;;29.60;67.30;29.70;96682.00;;;;5029534;28;20432;-79
2023/08/18 09:35:35;;;;;;;1.42;1.10;;;29.80;67.40;29.80;96683.00;;;;5029680;28;20236;-79
2023/08/18 09:38:03;;;;;;;1.65;1.10;;;29.90;67.80;29.90;96681.00;;;;5032256;28;20747;-79
2023/08/18 09:40:31;;;;;;;1.30;1.20;;;30.00;67.60;30.00;96681.00;;;;5031782;28;20198;-80
2023/08/18 09:42:58;;;;;;;0.88;0.88;;;30.10;65.80;30.10;96683.00;;;;5031332;28;20213;-80
2023/08/18 09:45:27;;;;;;;1.98;1.40;;;30.20;65.70;30.20;96690.00;;;;5010783;28;20198;-79
2023/08/18 09:47:56;;;;;;;2.80;0.90;;;30.30;65.80;30.30;96678.00;;;;5033519;28;20198;-79
2023/08/18 09:50:26;;;;;;;1.02;1.00;;;30.40;64.60;30.40;96680.00;;;;5031862;28;20220;-79
2023/08/18 09:52:59;;;;;;;0.98;0.95;;;30.50;63.60;30.40;96673.00;;;;5028265;28;20693;-79
2023/08/18 09:55:33;;;;;;;1.20;1.10;;;30.60;64.30;30.50;96678.00;;;;5030234;28;20190;-79
2023/08/18 09:58:11;;;;;;;1.27;1.17;;;30.70;64.10;30.60;96679.00;;;;5033101;28;20202;-79
2023/08/18 10:00:44;;;;;;;0.95;0.95;;;30.80;61.90;30.70;96673.00;;;;5031727;28;20732;-79
2023/08/18 10:03:16;;;;;;;1.17;1.10;;;30.90;63.50;30.80;96681.00;;;;5030651;28;20216;-79
2023/08/18 10:05:49;;;;;;;0.95;0.95;;;31.00;63.50;30.90;96678.00;;;;5025793;28;20204;-79
2023/08/18 10:08:18;;;;;;;1.30;1.17;;;31.10;64.20;31.00;96669.00;;;;5030251;28;20199;-79
2023/08/18 10:10:47;;;;;;;1.15;1.10;;;31.20;63.90;31.10;96681.00;;;;5024786;28;20272;-78
2023/08/18 10:13:15;;;;;;;1.77;1.20;;;31.20;64.50;31.20;96680.00;;;;5025595;28;20344;-78
2023/08/18 10:15:45;;;;;;;1.17;1.08;;;31.30;64.80;31.30;96678.00;;;;5028098;28;20707;-79
2023/08/18 10:18:12;;;;;;;1.30;1.20;;;31.40;63.40;31.30;96677.00;;;;5029512;28;20573;-79
2023/08/18 10:20:50;;;;;;;1.00;1.00;;;31.50;62.60;31.40;96679.00;;;;5029055;28;20272;-79
2023/08/18 10:23:20;;;;;;;1.63;1.20;;;31.60;61.60;31.50;96683.00;;;;5031165;28;20466;-78
2023/08/18 10:25:51;;;;;;;1.05;1.05;;;31.70;60.90;31.50;96683.00;;;;5036520;28;20203;-79
2023/08/18 10:28:20;;;;;;;1.23;1.10;;;31.70;59.60;31.60;96680.00;;;;5038557;28;20279;-79
2023/08/18 10:30:59;;;;;;;1.20;1.10;;;31.80;61.00;31.70;96677.00;;;;5030199;28;20217;-79
2023/08/18 10:33:35;;;;;;;1.50;1.40;;;31.90;61.00;31.80;96680.00;;;;5026878;28;20783;-78
2023/08/18 10:36:05;;;;;;;1.35;1.35;;;32.00;61.90;31.90;96678.00;;;;5034138;28;20246;-78
2023/08/18 10:38:39;;;;;;;1.52;1.42;;;32.10;62.40;31.90;96673.00;;;;5028641;28;20198;-78
2023/08/18 10:41:06;;;;;;;1.40;1.30;;;32.20;62.30;32.00;96675.00;;;;5032310;28;20194;-78
2023/08/18 10:43:45;;;;;;;1.42;1.30;;;32.30;62.40;32.10;96677.00;;;;5028658;28;20627;-79
2023/08/18 10:46:13;;;;;;;1.27;1.13;;;32.40;59.70;32.20;96670.00;;;;5028794;28;20204;-79
2023/08/18 10:48:41;;;;;;;2.35;1.25;;;32.50;60.20;32.20;96672.00;;;;5041206;28;20681;-79
2023/08/18 10:51:09;;;;;;;1.33;1.25;;;32.50;59.50;32.30;96675.00;;;;5020011;28;20703;-78
2023/08/18 10:53:40;;;;;;;2.63;1.48;;;32.60;60.00;32.30;96666.00;;;;5038085;28;20221;-78
2023/08/18 10:56:07;;;;;;;1.27;1.25;;;32.60;60.30;32.40;96662.00;;;;5045374;28;20225;-78
2023/08/18 10:58:35;;;;;;;1.50;1.40;;;32.60;60.80;32.40;96664.00;;;;5048199;28;20276;-79
2023/08/18 11:01:03;;;;;;;1.52;1.42;;;32.70;60.70;32.40;96669.00;;;;5050434;28;20201;-79